sensor_id;sensor_type;location;lat;lon;timestamp;P1;durP1;ratioP1;P2;durP2;ratioP2
18520;SDS011;9390;51.244;6.982;2023-08-01T00:01:54;11.48;;;5.00;;
18520;SDS011;9390;51.244;6.982;2023-08-01T00:04:26;16.45;;;4.60;;
18520;SDS011;9390;51.244;6.982;2023-08-01T00:06:57;18.25;;;5.30;;
18520;SDS011;9390;51.244;6.982;2023-08-01T00:09:29;11.57;;;4.60;;
18520;SDS011;9390;51.244;6.982;2023-08-01T00:12:00;9.80;;;3.75;;
18520;SDS011;9390;51.244;6.982;2023-08-01T00:14:31;12.40;;;4.32;;
18520;SDS011;9390;51.244;6.982;2023-08-01T00:17:05;10.20;;;4.47;;
18520;SDS011;9390;51.244;6.982;2023-08-01T00:19:36;8.35;;;3.78;;
18520;SDS011;9390;51.244;6.982;2023-08-01T00:22:08;14.63;;;4.43;;
18520;SDS011;9390;51.244;6.982;2023-08-01T00:24:40;10.98;;;4.28;;
18520;SDS011;9390;51.244;6.982;2023-08-01T00:27:11;17.77;;;4.18;;
18520;SDS011;9390;51.244;6.982;2023-08-01T00:29:42;17.58;;;4.82;;
18520;SDS011;9390;51.244;6.982;2023-08-01T00:32:15;13.27;;;4.75;;
18520;SDS011;9390;51.244;6.982;2023-08-01T00:34:47;11.70;;;4.07;;
18520;SDS011;9390;51.244;6.982;2023-08-01T00:37:18;12.05;;;4.07;;
18520;SDS011;9390;51.244;6.982;2023-08-01T00:39:49;12.93;;;4.38;;
18520;SDS011;9390;51.244;6.982;2023-08-01T00:42:21;12.48;;;4.32;;
18520;SDS011;9390;51.244;6.982;2023-08-01T00:44:52;10.95;;;4.05;;
18520;SDS011;9390;51.244;6.982;2023-08-01T00:47:25;15.52;;;4.18;;
18520;SDS011;9390;51.244;6.982;2023-08-01T00:49:57;8.93;;;3.55;;
18520;SDS011;9390;51.244;6.982;2023-08-01T00:52:28;11.38;;;3.80;;
18520;SDS011;9390;51.244;6.982;2023-08-01T00:55:00;10.77;;;3.22;;
18520;SDS011;9390;51.244;6.982;2023-08-01T00:57:32;11.90;;;2.88;;
18520;SDS011;9390;51.244;6.982;2023-08-01T01:00:03;6.05;;;2.45;;
18520;SDS011;9390;51.244;6.982;2023-08-01T01:02:37;12.70;;;2.85;;
18520;SDS011;9390;51.244;6.982;2023-08-01T01:05:09;9.75;;;3.10;;
18520;SDS011;9390;51.244;6.982;2023-08-01T01:07:40;13.27;;;3.03;;
18520;SDS011;9390;51.244;6.982;2023-08-01T01:10:12;5.35;;;2.10;;
18520;SDS011;9390;51.244;6.982;2023-08-01T01:12:43;5.15;;;1.88;;
18520;SDS011;9390;51.244;6.982;2023-08-01T01:15:15;2.55;;;1.02;;
18520;SDS011;9390;51.244;6.982;2023-08-01T01:17:48;2.80;;;1.00;;
18520;SDS011;9390;51.244;6.982;2023-08-01T01:20:22;1.95;;;1.10;;
18520;SDS011;9390;51.244;6.982;2023-08-01T01:22:56;2.00;;;0.88;;
18520;SDS011;9390;51.244;6.982;2023-08-01T01:25:27;2.42;;;1.13;;
18520;SDS011;9390;51.244;6.982;2023-08-01T01:27:59;2.92;;;1.20;;
18520;SDS011;9390;51.244;6.982;2023-08-01T01:30:31;2.08;;;0.90;;
18520;SDS011;9390;51.244;6.982;2023-08-01T01:33:04;4.72;;;1.10;;
18520;SDS011;9390;51.244;6.982;2023-08-01T01:35:36;3.60;;;1.15;;
18520;SDS011;9390;51.244;6.982;2023-08-01T01:38:08;3.42;;;1.10;;
18520;SDS011;9390;51.244;6.982;2023-08-01T01:40:40;3.80;;;1.30;;
18520;SDS011;9390;51.244;6.982;2023-08-01T01:43:11;5.97;;;1.50;;
18520;SDS011;9390;51.244;6.982;2023-08-01T01:45:43;3.50;;;1.48;;
18520;SDS011;9390;51.244;6.982;2023-08-01T01:48:14;5.22;;;1.50;;
18520;SDS011;9390;51.244;6.982;2023-08-01T01:50:46;4.05;;;1.45;;
18520;SDS011;9390;51.244;6.982;2023-08-01T01:53:18;5.85;;;1.92;;
18520;SDS011;9390;51.244;6.982;2023-08-01T01:55:50;4.68;;;1.95;;
18520;SDS011;9390;51.244;6.982;2023-08-01T01:58:21;5.85;;;2.00;;
18520;SDS011;9390;51.244;6.982;2023-08-01T02:00:53;6.40;;;2.38;;
18520;SDS011;9390;51.244;6.982;2023-08-01T02:03:24;5.75;;;2.50;;
18520;SDS011;9390;51.244;6.982;2023-08-01T02:05:55;8.93;;;3.33;;
18520;SDS011;9390;51.244;6.982;2023-08-01T02:08:28;6.95;;;2.92;;
18520;SDS011;9390;51.244;6.982;2023-08-01T02:11:00;10.50;;;3.03;;
18520;SDS011;9390;51.244;6.982;2023-08-01T02:13:31;7.93;;;2.83;;
18520;SDS011;9390;51.244;6.982;2023-08-01T02:16:03;10.38;;;2.40;;
18520;SDS011;9390;51.244;6.982;2023-08-01T02:18:35;7.05;;;2.58;;
18520;SDS011;9390;51.244;6.982;2023-08-01T02:21:06;6.80;;;2.28;;
18520;SDS011;9390;51.244;6.982;2023-08-01T02:23:39;11.45;;;2.45;;
18520;SDS011;9390;51.244;6.982;2023-08-01T02:26:11;5.60;;;2.30;;
18520;SDS011;9390;51.244;6.982;2023-08-01T02:28:42;5.43;;;2.17;;
18520;SDS011;9390;51.244;6.982;2023-08-01T02:31:14;7.72;;;2.38;;
18520;SDS011;9390;51.244;6.982;2023-08-01T02:33:46;8.63;;;3.13;;
18520;SDS011;9390;51.244;6.982;2023-08-01T02:36:17;11.55;;;4.82;;
18520;SDS011;9390;51.244;6.982;2023-08-01T02:38:50;11.15;;;4.50;;
18520;SDS011;9390;51.244;6.982;2023-08-01T02:41:21;13.73;;;5.80;;
18520;SDS011;9390;51.244;6.982;2023-08-01T02:43:53;13.40;;;5.47;;
18520;SDS011;9390;51.244;6.982;2023-08-01T02:46:24;11.23;;;5.15;;
18520;SDS011;9390;51.244;6.982;2023-08-01T02:48:58;11.77;;;5.80;;
18520;SDS011;9390;51.244;6.982;2023-08-01T02:51:29;12.75;;;5.72;;
18520;SDS011;9390;51.244;6.982;2023-08-01T02:54:02;15.90;;;6.63;;
18520;SDS011;9390;51.244;6.982;2023-08-01T02:56:33;13.85;;;5.90;;
18520;SDS011;9390;51.244;6.982;2023-08-01T02:59:05;13.25;;;5.97;;
18520;SDS011;9390;51.244;6.982;2023-08-01T03:01:36;13.63;;;5.93;;
18520;SDS011;9390;51.244;6.982;2023-08-01T03:04:08;17.70;;;6.80;;
18520;SDS011;9390;51.244;6.982;2023-08-01T03:06:41;15.52;;;7.22;;
18520;SDS011;9390;51.244;6.982;2023-08-01T03:09:14;15.63;;;8.07;;
18520;SDS011;9390;51.244;6.982;2023-08-01T03:11:46;16.40;;;8.55;;
18520;SDS011;9390;51.244;6.982;2023-08-01T03:14:17;24.17;;;9.20;;
18520;SDS011;9390;51.244;6.982;2023-08-01T03:16:48;18.95;;;8.40;;
18520;SDS011;9390;51.244;6.982;2023-08-01T03:19:20;19.48;;;9.38;;
18520;SDS011;9390;51.244;6.982;2023-08-01T03:21:51;25.45;;;9.73;;
18520;SDS011;9390;51.244;6.982;2023-08-01T03:24:24;26.50;;;11.10;;
18520;SDS011;9390;51.244;6.982;2023-08-01T03:26:55;31.05;;;12.70;;
18520;SDS011;9390;51.244;6.982;2023-08-01T03:29:27;33.50;;;15.25;;
18520;SDS011;9390;51.244;6.982;2023-08-01T03:31:58;34.90;;;13.70;;
18520;SDS011;9390;51.244;6.982;2023-08-01T03:34:30;36.00;;;14.55;;
18520;SDS011;9390;51.244;6.982;2023-08-01T03:37:02;39.90;;;14.15;;
18520;SDS011;9390;51.244;6.982;2023-08-01T03:39:35;35.58;;;14.93;;
18520;SDS011;9390;51.244;6.982;2023-08-01T03:42:07;37.63;;;15.32;;
18520;SDS011;9390;51.244;6.982;2023-08-01T03:44:38;37.00;;;14.52;;
18520;SDS011;9390;51.244;6.982;2023-08-01T03:47:09;41.65;;;15.35;;
18520;SDS011;9390;51.244;6.982;2023-08-01T03:49:41;40.83;;;15.82;;
18520;SDS011;9390;51.244;6.982;2023-08-01T03:52:12;43.63;;;15.57;;
18520;SDS011;9390;51.244;6.982;2023-08-01T03:54:45;44.33;;;15.32;;
18520;SDS011;9390;51.244;6.982;2023-08-01T03:59:48;36.38;;;13.98;;
18520;SDS011;9390;51.244;6.982;2023-08-01T04:02:19;40.60;;;15.85;;
18520;SDS011;9390;51.244;6.982;2023-08-01T04:04:51;41.22;;;15.32;;
18520;SDS011;9390;51.244;6.982;2023-08-01T04:07:23;40.92;;;16.38;;
18520;SDS011;9390;51.244;6.982;2023-08-01T04:09:56;35.53;;;15.00;;
18520;SDS011;9390;51.244;6.982;2023-08-01T04:12:27;39.88;;;14.75;;
18520;SDS011;9390;51.244;6.982;2023-08-01T04:14:59;34.28;;;13.82;;
18520;SDS011;9390;51.244;6.982;2023-08-01T04:17:30;41.13;;;14.95;;
18520;SDS011;9390;51.244;6.982;2023-08-01T04:20:02;35.75;;;14.32;;
18520;SDS011;9390;51.244;6.982;2023-08-01T04:22:34;44.95;;;13.98;;
18520;SDS011;9390;51.244;6.982;2023-08-01T04:25:07;38.35;;;14.43;;
18520;SDS011;9390;51.244;6.982;2023-08-01T04:27:39;40.53;;;14.57;;
18520;SDS011;9390;51.244;6.982;2023-08-01T04:30:11;31.25;;;14.52;;
18520;SDS011;9390;51.244;6.982;2023-08-01T04:32:42;34.63;;;14.57;;
18520;SDS011;9390;51.244;6.982;2023-08-01T04:35:14;35.80;;;15.00;;
18520;SDS011;9390;51.244;6.982;2023-08-01T04:37:45;41.17;;;16.00;;
18520;SDS011;9390;51.244;6.982;2023-08-01T04:40:18;36.25;;;15.85;;
18520;SDS011;9390;51.244;6.982;2023-08-01T04:42:49;42.45;;;16.15;;
18520;SDS011;9390;51.244;6.982;2023-08-01T04:45:21;42.88;;;15.95;;
18520;SDS011;9390;51.244;6.982;2023-08-01T04:47:53;45.03;;;16.48;;
18520;SDS011;9390;51.244;6.982;2023-08-01T04:50:24;46.65;;;16.73;;
18520;SDS011;9390;51.244;6.982;2023-08-01T04:52:55;49.03;;;15.85;;
18520;SDS011;9390;51.244;6.982;2023-08-01T04:55:28;43.60;;;16.75;;
18520;SDS011;9390;51.244;6.982;2023-08-01T04:58:00;46.80;;;16.52;;
18520;SDS011;9390;51.244;6.982;2023-08-01T05:00:31;43.28;;;17.33;;
18520;SDS011;9390;51.244;6.982;2023-08-01T05:03:02;44.78;;;18.40;;
18520;SDS011;9390;51.244;6.982;2023-08-01T05:05:34;51.75;;;18.77;;
18520;SDS011;9390;51.244;6.982;2023-08-01T05:08:05;50.78;;;17.95;;
18520;SDS011;9390;51.244;6.982;2023-08-01T05:10:38;44.95;;;18.95;;
18520;SDS011;9390;51.244;6.982;2023-08-01T05:13:09;59.53;;;20.20;;
18520;SDS011;9390;51.244;6.982;2023-08-01T05:15:43;70.20;;;19.48;;
18520;SDS011;9390;51.244;6.982;2023-08-01T05:18:15;50.38;;;18.80;;
18520;SDS011;9390;51.244;6.982;2023-08-01T05:20:47;52.50;;;20.00;;
18520;SDS011;9390;51.244;6.982;2023-08-01T05:23:19;63.95;;;19.73;;
18520;SDS011;9390;51.244;6.982;2023-08-01T05:25:51;49.97;;;16.98;;
18520;SDS011;9390;51.244;6.982;2023-08-01T05:28:23;52.30;;;18.55;;
18520;SDS011;9390;51.244;6.982;2023-08-01T05:30:54;47.05;;;18.85;;
18520;SDS011;9390;51.244;6.982;2023-08-01T05:33:26;55.95;;;18.05;;
18520;SDS011;9390;51.244;6.982;2023-08-01T05:35:58;51.13;;;18.08;;
18520;SDS011;9390;51.244;6.982;2023-08-01T05:38:29;55.95;;;17.70;;
18520;SDS011;9390;51.244;6.982;2023-08-01T05:41:02;46.80;;;17.98;;
18520;SDS011;9390;51.244;6.982;2023-08-01T05:43:33;55.78;;;17.35;;
18520;SDS011;9390;51.244;6.982;2023-08-01T05:46:05;53.78;;;17.75;;
18520;SDS011;9390;51.244;6.982;2023-08-01T05:48:36;45.65;;;17.15;;
18520;SDS011;9390;51.244;6.982;2023-08-01T05:51:07;41.17;;;16.58;;
18520;SDS011;9390;51.244;6.982;2023-08-01T05:53:39;45.67;;;16.40;;
18520;SDS011;9390;51.244;6.982;2023-08-01T05:56:12;44.28;;;15.60;;
18520;SDS011;9390;51.244;6.982;2023-08-01T05:58:43;36.88;;;15.10;;
18520;SDS011;9390;51.244;6.982;2023-08-01T06:01:14;36.83;;;14.73;;
18520;SDS011;9390;51.244;6.982;2023-08-01T06:03:46;47.90;;;15.85;;
18520;SDS011;9390;51.244;6.982;2023-08-01T06:06:18;48.03;;;15.18;;
18520;SDS011;9390;51.244;6.982;2023-08-01T06:08:49;35.13;;;13.80;;
18520;SDS011;9390;51.244;6.982;2023-08-01T06:11:22;43.73;;;14.43;;
18520;SDS011;9390;51.244;6.982;2023-08-01T06:13:54;38.42;;;14.23;;
18520;SDS011;9390;51.244;6.982;2023-08-01T06:16:26;39.03;;;13.85;;
18520;SDS011;9390;51.244;6.982;2023-08-01T06:18:58;36.05;;;14.18;;
18520;SDS011;9390;51.244;6.982;2023-08-01T06:21:29;46.87;;;14.80;;
18520;SDS011;9390;51.244;6.982;2023-08-01T06:24:01;33.33;;;12.95;;
18520;SDS011;9390;51.244;6.982;2023-08-01T06:26:33;36.78;;;13.30;;
18520;SDS011;9390;51.244;6.982;2023-08-01T06:29:05;29.10;;;12.07;;
18520;SDS011;9390;51.244;6.982;2023-08-01T06:31:36;35.83;;;11.52;;
18520;SDS011;9390;51.244;6.982;2023-08-01T06:34:08;33.45;;;12.43;;
18520;SDS011;9390;51.244;6.982;2023-08-01T06:36:39;34.08;;;11.85;;
18520;SDS011;9390;51.244;6.982;2023-08-01T06:39:11;32.00;;;12.35;;
18520;SDS011;9390;51.244;6.982;2023-08-01T06:41:44;35.88;;;12.52;;
18520;SDS011;9390;51.244;6.982;2023-08-01T06:44:16;30.42;;;12.20;;
18520;SDS011;9390;51.244;6.982;2023-08-01T06:46:47;30.98;;;11.73;;
18520;SDS011;9390;51.244;6.982;2023-08-01T06:49:19;33.03;;;11.18;;
18520;SDS011;9390;51.244;6.982;2023-08-01T06:51:50;37.72;;;12.32;;
18520;SDS011;9390;51.244;6.982;2023-08-01T06:54:21;31.90;;;11.20;;
18520;SDS011;9390;51.244;6.982;2023-08-01T06:56:54;28.23;;;11.05;;
18520;SDS011;9390;51.244;6.982;2023-08-01T06:59:26;23.08;;;10.65;;
18520;SDS011;9390;51.244;6.982;2023-08-01T07:01:57;31.13;;;11.40;;
18520;SDS011;9390;51.244;6.982;2023-08-01T07:04:28;32.45;;;11.35;;
18520;SDS011;9390;51.244;6.982;2023-08-01T07:07:00;32.25;;;10.45;;
18520;SDS011;9390;51.244;6.982;2023-08-01T07:09:31;26.00;;;10.07;;
18520;SDS011;9390;51.244;6.982;2023-08-01T07:12:05;29.50;;;10.93;;
18520;SDS011;9390;51.244;6.982;2023-08-01T07:14:37;36.13;;;9.88;;
18520;SDS011;9390;51.244;6.982;2023-08-01T07:17:08;30.90;;;10.75;;
18520;SDS011;9390;51.244;6.982;2023-08-01T07:19:40;22.63;;;10.38;;
18520;SDS011;9390;51.244;6.982;2023-08-01T07:22:11;25.92;;;10.38;;
18520;SDS011;9390;51.244;6.982;2023-08-01T07:24:43;26.15;;;10.55;;
18520;SDS011;9390;51.244;6.982;2023-08-01T07:27:15;24.60;;;10.88;;
18520;SDS011;9390;51.244;6.982;2023-08-01T07:29:47;34.10;;;10.98;;
18520;SDS011;9390;51.244;6.982;2023-08-01T07:32:19;25.73;;;10.27;;
18520;SDS011;9390;51.244;6.982;2023-08-01T07:34:50;30.52;;;10.43;;
18520;SDS011;9390;51.244;6.982;2023-08-01T07:37:22;26.73;;;9.95;;
18520;SDS011;9390;51.244;6.982;2023-08-01T07:39:53;28.15;;;11.05;;
18520;SDS011;9390;51.244;6.982;2023-08-01T07:42:26;28.08;;;11.85;;
18520;SDS011;9390;51.244;6.982;2023-08-01T07:44:57;25.88;;;10.05;;
18520;SDS011;9390;51.244;6.982;2023-08-01T07:47:29;28.58;;;10.13;;
18520;SDS011;9390;51.244;6.982;2023-08-01T07:50:00;23.90;;;10.13;;
18520;SDS011;9390;51.244;6.982;2023-08-01T07:52:32;30.33;;;10.05;;
18520;SDS011;9390;51.244;6.982;2023-08-01T07:55:03;24.67;;;10.18;;
18520;SDS011;9390;51.244;6.982;2023-08-01T07:57:37;17.75;;;9.82;;
18520;SDS011;9390;51.244;6.982;2023-08-01T08:00:09;23.92;;;9.75;;
18520;SDS011;9390;51.244;6.982;2023-08-01T08:02:42;23.33;;;10.73;;
18520;SDS011;9390;51.244;6.982;2023-08-01T08:07:46;27.33;;;10.30;;
18520;SDS011;9390;51.244;6.982;2023-08-01T08:10:18;22.55;;;10.57;;
18520;SDS011;9390;51.244;6.982;2023-08-01T08:12:51;21.48;;;9.80;;
18520;SDS011;9390;51.244;6.982;2023-08-01T08:15:22;19.67;;;10.40;;
18520;SDS011;9390;51.244;6.982;2023-08-01T08:17:55;23.75;;;9.95;;
18520;SDS011;9390;51.244;6.982;2023-08-01T08:20:26;20.95;;;9.55;;
18520;SDS011;9390;51.244;6.982;2023-08-01T08:22:58;19.63;;;9.70;;
18520;SDS011;9390;51.244;6.982;2023-08-01T08:25:29;23.02;;;10.00;;
18520;SDS011;9390;51.244;6.982;2023-08-01T08:28:02;26.55;;;9.80;;
18520;SDS011;9390;51.244;6.982;2023-08-01T08:30:33;18.73;;;8.85;;
18520;SDS011;9390;51.244;6.982;2023-08-01T08:33:06;23.77;;;9.38;;
18520;SDS011;9390;51.244;6.982;2023-08-01T08:35:37;20.92;;;8.38;;
18520;SDS011;9390;51.244;6.982;2023-08-01T08:38:09;18.63;;;8.43;;
18520;SDS011;9390;51.244;6.982;2023-08-01T08:40:41;20.77;;;9.05;;
18520;SDS011;9390;51.244;6.982;2023-08-01T08:43:16;20.17;;;8.57;;
18520;SDS011;9390;51.244;6.982;2023-08-01T08:48:19;22.33;;;8.13;;
18520;SDS011;9390;51.244;6.982;2023-08-01T08:50:50;27.10;;;7.88;;
18520;SDS011;9390;51.244;6.982;2023-08-01T08:53:22;21.75;;;7.72;;
18520;SDS011;9390;51.244;6.982;2023-08-01T08:55:54;18.25;;;8.77;;
18520;SDS011;9390;51.244;6.982;2023-08-01T08:58:27;22.50;;;8.95;;
18520;SDS011;9390;51.244;6.982;2023-08-01T09:01:00;22.67;;;8.05;;
18520;SDS011;9390;51.244;6.982;2023-08-01T09:03:32;19.65;;;7.82;;
18520;SDS011;9390;51.244;6.982;2023-08-01T09:06:04;15.05;;;6.85;;
18520;SDS011;9390;51.244;6.982;2023-08-01T09:08:39;17.67;;;7.78;;
18520;SDS011;9390;51.244;6.982;2023-08-01T09:11:11;17.98;;;7.13;;
18520;SDS011;9390;51.244;6.982;2023-08-01T09:13:44;18.00;;;6.63;;
18520;SDS011;9390;51.244;6.982;2023-08-01T09:18:48;14.25;;;6.13;;
18520;SDS011;9390;51.244;6.982;2023-08-01T09:21:20;13.40;;;6.32;;
18520;SDS011;9390;51.244;6.982;2023-08-01T09:23:52;15.30;;;6.20;;
18520;SDS011;9390;51.244;6.982;2023-08-01T09:26:23;16.98;;;6.80;;
18520;SDS011;9390;51.244;6.982;2023-08-01T09:28:56;13.57;;;6.78;;
18520;SDS011;9390;51.244;6.982;2023-08-01T09:31:28;17.73;;;7.25;;
18520;SDS011;9390;51.244;6.982;2023-08-01T09:34:01;20.63;;;7.22;;
18520;SDS011;9390;51.244;6.982;2023-08-01T09:36:34;16.73;;;6.38;;
18520;SDS011;9390;51.244;6.982;2023-08-01T09:39:05;17.02;;;6.45;;
18520;SDS011;9390;51.244;6.982;2023-08-01T09:41:36;14.93;;;5.70;;
18520;SDS011;9390;51.244;6.982;2023-08-01T09:44:11;19.65;;;6.45;;
18520;SDS011;9390;51.244;6.982;2023-08-01T09:46:43;14.23;;;6.05;;
18520;SDS011;9390;51.244;6.982;2023-08-01T09:49:14;12.60;;;5.85;;
18520;SDS011;9390;51.244;6.982;2023-08-01T09:51:46;12.93;;;5.50;;
18520;SDS011;9390;51.244;6.982;2023-08-01T09:54:20;16.20;;;6.47;;
18520;SDS011;9390;51.244;6.982;2023-08-01T09:56:53;10.38;;;5.45;;
18520;SDS011;9390;51.244;6.982;2023-08-01T09:59:27;13.32;;;5.47;;
18520;SDS011;9390;51.244;6.982;2023-08-01T10:01:59;13.30;;;5.35;;
18520;SDS011;9390;51.244;6.982;2023-08-01T10:04:31;11.18;;;5.32;;
18520;SDS011;9390;51.244;6.982;2023-08-01T10:07:09;13.75;;;4.95;;
18520;SDS011;9390;51.244;6.982;2023-08-01T10:09:43;14.30;;;5.25;;
18520;SDS011;9390;51.244;6.982;2023-08-01T10:12:14;13.80;;;5.22;;
18520;SDS011;9390;51.244;6.982;2023-08-01T10:14:48;8.93;;;4.40;;
18520;SDS011;9390;51.244;6.982;2023-08-01T10:17:20;13.93;;;4.80;;
18520;SDS011;9390;51.244;6.982;2023-08-01T10:19:52;10.38;;;4.28;;
18520;SDS011;9390;51.244;6.982;2023-08-01T10:22:26;14.02;;;4.53;;
18520;SDS011;9390;51.244;6.982;2023-08-01T10:24:57;10.85;;;5.15;;
18520;SDS011;9390;51.244;6.982;2023-08-01T10:27:29;15.98;;;4.63;;
18520;SDS011;9390;51.244;6.982;2023-08-01T10:30:02;11.35;;;4.43;;
18520;SDS011;9390;51.244;6.982;2023-08-01T10:32:36;10.40;;;4.03;;
18520;SDS011;9390;51.244;6.982;2023-08-01T10:35:08;24.27;;;5.25;;
18520;SDS011;9390;51.244;6.982;2023-08-01T10:37:40;11.48;;;3.97;;
18520;SDS011;9390;51.244;6.982;2023-08-01T10:40:12;11.60;;;4.22;;
18520;SDS011;9390;51.244;6.982;2023-08-01T10:42:44;11.25;;;4.50;;
18520;SDS011;9390;51.244;6.982;2023-08-01T10:45:21;10.23;;;4.38;;
18520;SDS011;9390;51.244;6.982;2023-08-01T10:47:53;10.93;;;3.92;;
18520;SDS011;9390;51.244;6.982;2023-08-01T10:50:25;9.82;;;3.78;;
18520;SDS011;9390;51.244;6.982;2023-08-01T10:53:01;9.48;;;4.10;;
18520;SDS011;9390;51.244;6.982;2023-08-01T10:55:40;8.90;;;3.88;;
18520;SDS011;9390;51.244;6.982;2023-08-01T10:58:12;11.85;;;4.10;;
18520;SDS011;9390;51.244;6.982;2023-08-01T11:00:45;12.90;;;4.22;;
18520;SDS011;9390;51.244;6.982;2023-08-01T11:03:16;8.52;;;3.83;;
18520;SDS011;9390;51.244;6.982;2023-08-01T11:08:33;8.13;;;3.63;;
18520;SDS011;9390;51.244;6.982;2023-08-01T11:11:05;11.50;;;4.30;;
18520;SDS011;9390;51.244;6.982;2023-08-01T11:13:38;9.52;;;3.90;;
18520;SDS011;9390;51.244;6.982;2023-08-01T11:16:10;7.35;;;3.67;;
18520;SDS011;9390;51.244;6.982;2023-08-01T11:21:23;14.00;;;3.83;;
18520;SDS011;9390;51.244;6.982;2023-08-01T11:23:56;12.43;;;4.53;;
18520;SDS011;9390;51.244;6.982;2023-08-01T11:26:28;10.02;;;3.50;;
18520;SDS011;9390;51.244;6.982;2023-08-01T11:29:00;11.80;;;4.10;;
18520;SDS011;9390;51.244;6.982;2023-08-01T11:31:34;9.43;;;3.65;;
18520;SDS011;9390;51.244;6.982;2023-08-01T11:34:06;8.15;;;3.22;;
18520;SDS011;9390;51.244;6.982;2023-08-01T11:36:38;11.07;;;3.95;;
18520;SDS011;9390;51.244;6.982;2023-08-01T11:39:09;11.32;;;3.92;;
18520;SDS011;9390;51.244;6.982;2023-08-01T11:41:41;10.10;;;3.42;;
18520;SDS011;9390;51.244;6.982;2023-08-01T11:44:12;10.70;;;3.60;;
18520;SDS011;9390;51.244;6.982;2023-08-01T11:46:45;11.25;;;3.20;;
18520;SDS011;9390;51.244;6.982;2023-08-01T11:49:17;8.48;;;3.00;;
18520;SDS011;9390;51.244;6.982;2023-08-01T11:51:48;7.15;;;2.55;;
18520;SDS011;9390;51.244;6.982;2023-08-01T11:54:20;9.02;;;2.47;;
18520;SDS011;9390;51.244;6.982;2023-08-01T11:56:59;7.88;;;2.65;;
18520;SDS011;9390;51.244;6.982;2023-08-01T11:59:31;6.07;;;1.83;;
18520;SDS011;9390;51.244;6.982;2023-08-01T12:02:04;6.03;;;1.95;;
18520;SDS011;9390;51.244;6.982;2023-08-01T12:04:36;6.15;;;1.98;;
18520;SDS011;9390;51.244;6.982;2023-08-01T12:07:12;5.45;;;1.90;;
18520;SDS011;9390;51.244;6.982;2023-08-01T12:09:45;5.97;;;2.20;;
18520;SDS011;9390;51.244;6.982;2023-08-01T12:12:26;5.00;;;2.10;;
18520;SDS011;9390;51.244;6.982;2023-08-01T12:14:58;6.25;;;2.05;;
18520;SDS011;9390;51.244;6.982;2023-08-01T12:17:31;7.35;;;2.47;;
18520;SDS011;9390;51.244;6.982;2023-08-01T12:20:03;6.32;;;2.80;;
18520;SDS011;9390;51.244;6.982;2023-08-01T12:22:35;10.23;;;3.17;;
18520;SDS011;9390;51.244;6.982;2023-08-01T12:25:06;12.00;;;2.90;;
18520;SDS011;9390;51.244;6.982;2023-08-01T12:27:39;9.18;;;3.38;;
18520;SDS011;9390;51.244;6.982;2023-08-01T12:30:11;12.15;;;3.78;;
18520;SDS011;9390;51.244;6.982;2023-08-01T12:32:44;8.47;;;3.03;;
18520;SDS011;9390;51.244;6.982;2023-08-01T12:37:47;8.57;;;3.40;;
18520;SDS011;9390;51.244;6.982;2023-08-01T12:40:18;10.82;;;3.50;;
18520;SDS011;9390;51.244;6.982;2023-08-01T12:42:50;12.27;;;5.05;;
18520;SDS011;9390;51.244;6.982;2023-08-01T12:45:22;11.77;;;4.90;;
18520;SDS011;9390;51.244;6.982;2023-08-01T12:47:55;11.20;;;5.03;;
18520;SDS011;9390;51.244;6.982;2023-08-01T12:50:26;12.10;;;4.97;;
18520;SDS011;9390;51.244;6.982;2023-08-01T12:52:58;12.27;;;5.15;;
18520;SDS011;9390;51.244;6.982;2023-08-01T12:55:29;13.35;;;4.88;;
18520;SDS011;9390;51.244;6.982;2023-08-01T12:58:01;12.40;;;4.80;;
18520;SDS011;9390;51.244;6.982;2023-08-01T13:00:33;9.55;;;3.70;;
18520;SDS011;9390;51.244;6.982;2023-08-01T13:03:06;8.30;;;3.60;;
18520;SDS011;9390;51.244;6.982;2023-08-01T13:05:38;7.60;;;3.50;;
18520;SDS011;9390;51.244;6.982;2023-08-01T13:08:10;7.43;;;2.92;;
18520;SDS011;9390;51.244;6.982;2023-08-01T13:10:42;7.97;;;2.95;;
18520;SDS011;9390;51.244;6.982;2023-08-01T13:13:16;7.50;;;2.83;;
18520;SDS011;9390;51.244;6.982;2023-08-01T13:15:47;7.43;;;2.50;;
18520;SDS011;9390;51.244;6.982;2023-08-01T13:18:20;10.15;;;2.50;;
18520;SDS011;9390;51.244;6.982;2023-08-01T13:20:51;6.22;;;2.60;;
18520;SDS011;9390;51.244;6.982;2023-08-01T13:23:23;5.47;;;2.38;;
18520;SDS011;9390;51.244;6.982;2023-08-01T13:25:54;7.40;;;2.95;;
18520;SDS011;9390;51.244;6.982;2023-08-01T13:28:28;10.88;;;2.97;;
18520;SDS011;9390;51.244;6.982;2023-08-01T13:30:59;6.80;;;2.72;;
18520;SDS011;9390;51.244;6.982;2023-08-01T13:33:32;9.68;;;2.85;;
18520;SDS011;9390;51.244;6.982;2023-08-01T13:38:36;10.50;;;2.58;;
18520;SDS011;9390;51.244;6.982;2023-08-01T13:41:08;13.10;;;3.25;;
18520;SDS011;9390;51.244;6.982;2023-08-01T13:43:39;7.82;;;2.67;;
18520;SDS011;9390;51.244;6.982;2023-08-01T13:46:12;7.32;;;3.10;;
18520;SDS011;9390;51.244;6.982;2023-08-01T13:48:46;9.43;;;3.05;;
18520;SDS011;9390;51.244;6.982;2023-08-01T13:51:17;8.00;;;2.88;;
18520;SDS011;9390;51.244;6.982;2023-08-01T13:53:49;11.20;;;3.40;;
18520;SDS011;9390;51.244;6.982;2023-08-01T13:56:20;8.43;;;2.90;;
18520;SDS011;9390;51.244;6.982;2023-08-01T13:58:52;9.73;;;2.88;;
18520;SDS011;9390;51.244;6.982;2023-08-01T14:01:23;7.25;;;2.50;;
18520;SDS011;9390;51.244;6.982;2023-08-01T14:03:56;8.25;;;2.67;;
18520;SDS011;9390;51.244;6.982;2023-08-01T14:06:27;13.82;;;2.78;;
18520;SDS011;9390;51.244;6.982;2023-08-01T14:08:59;8.85;;;2.72;;
18520;SDS011;9390;51.244;6.982;2023-08-01T14:11:30;8.43;;;2.72;;
18520;SDS011;9390;51.244;6.982;2023-08-01T14:14:02;7.25;;;2.38;;
18520;SDS011;9390;51.244;6.982;2023-08-01T14:16:33;9.25;;;2.90;;
18520;SDS011;9390;51.244;6.982;2023-08-01T14:19:06;7.88;;;2.40;;
18520;SDS011;9390;51.244;6.982;2023-08-01T14:21:37;6.63;;;2.53;;
18520;SDS011;9390;51.244;6.982;2023-08-01T14:24:09;7.68;;;2.50;;
18520;SDS011;9390;51.244;6.982;2023-08-01T14:26:40;7.05;;;2.33;;
18520;SDS011;9390;51.244;6.982;2023-08-01T14:29:12;12.77;;;2.55;;
18520;SDS011;9390;51.244;6.982;2023-08-01T14:31:43;8.48;;;2.35;;
18520;SDS011;9390;51.244;6.982;2023-08-01T14:34:16;5.22;;;1.90;;
18520;SDS011;9390;51.244;6.982;2023-08-01T14:36:47;7.82;;;2.13;;
18520;SDS011;9390;51.244;6.982;2023-08-01T14:39:19;7.03;;;1.92;;
18520;SDS011;9390;51.244;6.982;2023-08-01T14:41:50;6.93;;;2.10;;
18520;SDS011;9390;51.244;6.982;2023-08-01T14:44:21;5.60;;;1.85;;
18520;SDS011;9390;51.244;6.982;2023-08-01T14:46:53;6.20;;;1.98;;
18520;SDS011;9390;51.244;6.982;2023-08-01T14:49:26;9.13;;;2.33;;
18520;SDS011;9390;51.244;6.982;2023-08-01T14:51:59;9.98;;;2.20;;
18520;SDS011;9390;51.244;6.982;2023-08-01T14:54:30;8.85;;;1.83;;
18520;SDS011;9390;51.244;6.982;2023-08-01T14:57:02;8.93;;;2.10;;
18520;SDS011;9390;51.244;6.982;2023-08-01T14:59:33;7.63;;;2.10;;
18520;SDS011;9390;51.244;6.982;2023-08-01T15:02:05;4.88;;;1.67;;
18520;SDS011;9390;51.244;6.982;2023-08-01T15:04:38;7.55;;;2.00;;
18520;SDS011;9390;51.244;6.982;2023-08-01T15:07:10;7.80;;;2.20;;
18520;SDS011;9390;51.244;6.982;2023-08-01T15:09:42;6.47;;;1.90;;
18520;SDS011;9390;51.244;6.982;2023-08-01T15:12:13;6.32;;;1.92;;
18520;SDS011;9390;51.244;6.982;2023-08-01T15:14:44;5.75;;;1.92;;
18520;SDS011;9390;51.244;6.982;2023-08-01T15:17:16;7.38;;;2.00;;
18520;SDS011;9390;51.244;6.982;2023-08-01T15:19:49;8.30;;;2.03;;
18520;SDS011;9390;51.244;6.982;2023-08-01T15:22:20;8.60;;;2.10;;
18520;SDS011;9390;51.244;6.982;2023-08-01T15:24:52;7.05;;;1.85;;
18520;SDS011;9390;51.244;6.982;2023-08-01T15:27:24;7.38;;;1.83;;
18520;SDS011;9390;51.244;6.982;2023-08-01T15:29:55;11.15;;;2.20;;
18520;SDS011;9390;51.244;6.982;2023-08-01T15:32:26;6.25;;;2.03;;
18520;SDS011;9390;51.244;6.982;2023-08-01T15:34:59;6.57;;;2.00;;
18520;SDS011;9390;51.244;6.982;2023-08-01T15:37:31;5.45;;;1.70;;